Chardon, Ohio
Current Conditions -  °F | °C
As of 9:45 AM on Saturday 25 Oct 2014 (Local Time) from KCGF Reporting Station
Broken Clouds Broken Clouds  
Wind Chill: 57°   Ceiling: 5000
Heat Index: 57°   Visibility: 15mi
Dew Point: 52°   Wind: 10mph
Humidity: 82%   Direction: 220°SW
Pressure: 29.87"   Gusts: 18mph
Location:  41.61°N, 81.15°W
Report Text: KCGF 251345Z 22009G16KT 15SM BKN050 BKN150 14/11 A2987
Loading
Personal Weather Stations






























Interactive Weather Map
Tropical Storm Tracking
New forecast layout! Learn more

10-Day Weather Forecast

Advertisements
Track Severe Weather on mobile